Terminal Aerodrome Forecast
Issued by NWS Topeka, KS

Home | Current Version | Previous Version | Text Only | Print | Product List | Glossary Off
Versions: 1 2 3 4 5 6 7 8 9 10 11 12 13 14 15

632
FTUS43 KTOP 271007 AAB
TAFTOP
TAF AMD
KTOP 271007Z 2710/2806 09002KT P6SM BKN250
      TEMPO 2712/2714 VRB15G25KT 4SM TSRA BR BKN060CB
     FM271500 12008KT P6SM SCT020 BKN035
     FM271700 13009KT P6SM VCTS SCT025 BKN035CB
     FM272300 35008KT P6SM BKN040
     FM280200 34009KT P6SM BKN025=

USA.gov is the U.S. government's official web portal to all federal, state and local government web resources and services.